Time;durP1;ratioP1;P1;durP2;ratioP2;P2;SDS_P1;SDS_P2;PMS_P1;PMS_P2;Temp;Humidity;BMP_temperature;BMP_pressure;BME280_temperature;BME280_humidity;BME280_pressure;Samples;Min_cycle;Max_cycle;Signal;HPM_P1;HPM_P2
2021/01/27 00:02:14;;;;;;;15.70;10.20;;;;;;;;;;5115122;28;20443;-67
2021/01/27 00:04:41;;;;;;;16.30;9.10;;;;;;;;;;5115414;28;20224;-67
2021/01/27 00:07:08;;;;;;;14.07;9.30;;;;;;;;;;5115188;28;20934;-67
2021/01/27 00:09:35;;;;;;;14.37;9.37;;;;;;;;;;5115143;28;20944;-67
2021/01/27 00:12:02;;;;;;;12.27;9.27;;;;;;;;;;5115089;28;20471;-68
2021/01/27 00:14:30;;;;;;;13.30;8.20;;;;;;;;;;5114795;28;20466;-67
2021/01/27 00:16:57;;;;;;;13.87;8.73;;;;;;;;;;5114900;28;20526;-67
2021/01/27 00:19:24;;;;;;;13.40;9.00;;;;;;;;;;5115158;28;20487;-67
2021/01/27 00:21:51;;;;;;;11.90;8.07;;;;;;;;;;5114783;28;20443;-67
2021/01/27 00:24:18;;;;;;;14.70;9.27;;;;;;;;;;5114774;28;21021;-67
2021/01/27 00:26:45;;;;;;;15.60;10.23;;;;;;;;;;5114476;28;20449;-67
2021/01/27 00:29:12;;;;;;;14.37;10.07;;;;;;;;;;5114745;28;20841;-67
2021/01/27 00:31:40;;;;;;;14.63;10.67;;;;;;;;;;5114575;28;20446;-68
2021/01/27 00:34:07;;;;;;;16.93;10.03;;;;;;;;;;5114766;28;20447;-67
2021/01/27 00:36:34;;;;;;;16.77;10.30;;;;;;;;;;5101646;28;20443;-67
2021/01/27 00:39:01;;;;;;;18.40;10.93;;;;;;;;;;5114309;28;20497;-67
2021/01/27 00:41:28;;;;;;;16.30;11.47;;;;;;;;;;5114196;28;20530;-67
2021/01/27 00:43:55;;;;;;;19.67;10.77;;;;;;;;;;5114335;28;20431;-67
2021/01/27 00:46:22;;;;;;;15.53;10.33;;;;;;;;;;5114308;28;20519;-67
2021/01/27 00:48:50;;;;;;;17.53;10.13;;;;;;;;;;5114482;28;20488;-67
2021/01/27 00:51:17;;;;;;;17.27;9.63;;;;;;;;;;5101795;28;20482;-68
2021/01/27 00:53:44;;;;;;;15.57;9.53;;;;;;;;;;5100867;28;20443;-67
2021/01/27 00:56:11;;;;;;;14.77;9.63;;;;;;;;;;5100412;28;20542;-67
2021/01/27 00:58:38;;;;;;;19.73;10.43;;;;;;;;;;5100407;28;20485;-67
2021/01/27 01:01:05;;;;;;;15.27;10.10;;;;;;;;;;5100534;28;20451;-67
2021/01/27 01:03:32;;;;;;;17.60;8.67;;;;;;;;;;5100437;28;20443;-67
2021/01/27 01:06:00;;;;;;;18.77;10.73;;;;;;;;;;5100399;28;20555;-67
2021/01/27 01:08:27;;;;;;;14.50;9.17;;;;;;;;;;5100558;28;20535;-67
2021/01/27 01:10:59;;;;;;;13.83;9.70;;;;;;;;;;5100470;28;20436;-67
2021/01/27 01:13:27;;;;;;;15.00;9.03;;;;;;;;;;5100532;28;20451;-67
2021/01/27 01:15:54;;;;;;;18.37;9.47;;;;;;;;;;5100215;28;20473;-67
2021/01/27 01:18:21;;;;;;;17.10;9.03;;;;;;;;;;5100350;28;20511;-67
2021/01/27 01:20:48;;;;;;;14.73;8.27;;;;;;;;;;5101111;28;20463;-67
2021/01/27 01:23:16;;;;;;;13.90;9.70;;;;;;;;;;5100331;28;20530;-67
2021/01/27 01:25:47;;;;;;;20.47;8.80;;;;;;;;;;5099548;28;20468;-67
2021/01/27 01:28:15;;;;;;;14.53;9.17;;;;;;;;;;5096158;28;20452;-67
2021/01/27 01:30:42;;;;;;;16.70;9.83;;;;;;;;;;5099789;28;20446;-67
2021/01/27 01:33:11;;;;;;;15.23;9.57;;;;;;;;;;5099721;28;20461;-67
2021/01/27 01:35:39;;;;;;;17.43;8.70;;;;;;;;;;5099593;28;20857;-67
2021/01/27 01:38:06;;;;;;;13.13;8.90;;;;;;;;;;5099606;28;20986;-67
2021/01/27 01:40:35;;;;;;;13.00;8.90;;;;;;;;;;5099686;28;20442;-67
2021/01/27 01:43:04;;;;;;;15.47;9.57;;;;;;;;;;5088031;28;20436;-67
2021/01/27 01:45:32;;;;;;;14.50;9.57;;;;;;;;;;5098563;28;20474;-67
2021/01/27 01:48:01;;;;;;;12.17;9.03;;;;;;;;;;5099376;28;20527;-67
2021/01/27 01:50:28;;;;;;;15.70;8.43;;;;;;;;;;5099387;28;20923;-67
2021/01/27 01:52:56;;;;;;;14.70;8.93;;;;;;;;;;5099288;28;20462;-67
2021/01/27 01:55:24;;;;;;;15.83;8.70;;;;;;;;;;5099271;28;20486;-67
2021/01/27 01:57:52;;;;;;;16.03;9.17;;;;;;;;;;5099563;28;20513;-67
2021/01/27 02:00:20;;;;;;;14.87;8.90;;;;;;;;;;5098969;28;20519;-67
2021/01/27 02:02:47;;;;;;;12.73;8.30;;;;;;;;;;5098282;28;20453;-67
2021/01/27 02:05:16;;;;;;;15.23;8.80;;;;;;;;;;5099263;28;20460;-67
2021/01/27 02:07:44;;;;;;;13.07;8.53;;;;;;;;;;5099511;28;20479;-67
2021/01/27 02:10:12;;;;;;;12.83;8.57;;;;;;;;;;5099150;28;20915;-67
2021/01/27 02:12:49;;;;;;;13.50;8.90;;;;;;;;;;5099020;28;20530;-67
2021/01/27 02:15:24;;;;;;;13.20;9.30;;;;;;;;;;5098652;28;20459;-67
2021/01/27 02:17:55;;;;;;;15.90;9.23;;;;;;;;;;5099066;28;20805;-67
2021/01/27 02:20:38;;;;;;;10.73;7.77;;;;;;;;;;5099203;28;20491;-67
2021/01/27 02:23:20;;;;;;;12.80;8.07;;;;;;;;;;5098872;28;20443;-67
2021/01/27 02:26:00;;;;;;;10.90;8.17;;;;;;;;;;5098983;28;20543;-67
2021/01/27 02:28:43;;;;;;;18.87;8.33;;;;;;;;;;5098918;28;20454;-67
2021/01/27 02:31:18;;;;;;;16.13;8.00;;;;;;;;;;5098456;28;20483;-67
2021/01/27 02:33:54;;;;;;;17.30;9.00;;;;;;;;;;5099018;28;20479;-67
2021/01/27 02:36:24;;;;;;;12.83;8.27;;;;;;;;;;5098536;28;20499;-67
2021/01/27 02:38:53;;;;;;;19.63;9.40;;;;;;;;;;5098490;28;20555;-67
2021/01/27 02:41:23;;;;;;;13.77;8.60;;;;;;;;;;5098536;28;20452;-67
2021/01/27 02:43:53;;;;;;;13.70;8.80;;;;;;;;;;5098874;28;20483;-67
2021/01/27 02:46:23;;;;;;;11.90;8.07;;;;;;;;;;5098208;28;20539;-67
2021/01/27 02:48:53;;;;;;;14.73;8.47;;;;;;;;;;5098641;28;20467;-67
2021/01/27 02:51:22;;;;;;;12.93;8.90;;;;;;;;;;5098881;28;20439;-67
2021/01/27 02:53:53;;;;;;;15.80;9.17;;;;;;;;;;5098565;28;20461;-67
2021/01/27 02:56:25;;;;;;;11.87;7.87;;;;;;;;;;5097382;28;20456;-67
2021/01/27 02:58:57;;;;;;;13.27;8.77;;;;;;;;;;5098473;28;20501;-67
2021/01/27 03:01:29;;;;;;;14.00;8.43;;;;;;;;;;5098055;28;20498;-67
2021/01/27 03:04:01;;;;;;;15.93;8.53;;;;;;;;;;5098361;28;20482;-67
2021/01/27 03:06:29;;;;;;;15.07;8.87;;;;;;;;;;5098492;28;20538;-68
2021/01/27 03:08:59;;;;;;;13.10;8.63;;;;;;;;;;5098278;28;20510;-67
2021/01/27 03:11:28;;;;;;;13.23;9.07;;;;;;;;;;5098227;28;20443;-67
2021/01/27 03:13:56;;;;;;;15.20;8.70;;;;;;;;;;5097790;28;20951;-67
2021/01/27 03:16:24;;;;;;;11.20;8.30;;;;;;;;;;5097932;28;20529;-67
2021/01/27 03:18:55;;;;;;;14.53;8.20;;;;;;;;;;5098227;28;20483;-67
2021/01/27 03:21:24;;;;;;;16.17;8.73;;;;;;;;;;5098097;28;20440;-67
2021/01/27 03:23:53;;;;;;;16.87;9.00;;;;;;;;;;5098035;28;20791;-67
2021/01/27 03:26:23;;;;;;;16.83;9.10;;;;;;;;;;5098041;28;20522;-67
2021/01/27 03:28:52;;;;;;;16.90;9.03;;;;;;;;;;5098073;28;20445;-67
2021/01/27 03:31:19;;;;;;;16.00;9.23;;;;;;;;;;5097573;28;20861;-67
2021/01/27 03:33:49;;;;;;;13.67;8.10;;;;;;;;;;5098122;28;20443;-67
2021/01/27 03:36:16;;;;;;;15.50;9.03;;;;;;;;;;5097874;28;20449;-67
2021/01/27 03:38:45;;;;;;;15.07;8.23;;;;;;;;;;5097569;28;20491;-67
2021/01/27 03:41:15;;;;;;;18.03;9.43;;;;;;;;;;5097712;28;20467;-67
2021/01/27 03:43:44;;;;;;;14.10;8.40;;;;;;;;;;5097831;28;20974;-67
2021/01/27 03:46:13;;;;;;;16.23;8.90;;;;;;;;;;5097310;28;20471;-67
2021/01/27 03:48:43;;;;;;;12.30;8.27;;;;;;;;;;5098028;28;20501;-67
2021/01/27 03:51:11;;;;;;;12.03;8.27;;;;;;;;;;5097866;28;20539;-67
2021/01/27 03:53:39;;;;;;;15.63;8.87;;;;;;;;;;5097838;28;20443;-67
2021/01/27 03:56:16;;;;;;;13.27;8.00;;;;;;;;;;5097692;28;20467;-67
2021/01/27 03:58:46;;;;;;;11.53;8.70;;;;;;;;;;5097393;28;20993;-67
2021/01/27 04:01:14;;;;;;;15.20;9.07;;;;;;;;;;5097670;28;20475;-67
2021/01/27 04:03:41;;;;;;;13.00;8.27;;;;;;;;;;5097401;28;20781;-67
2021/01/27 04:06:08;;;;;;;16.23;8.63;;;;;;;;;;5097462;28;20807;-67
2021/01/27 04:08:36;;;;;;;12.33;8.37;;;;;;;;;;5097697;28;20462;-67
2021/01/27 04:11:04;;;;;;;12.43;8.70;;;;;;;;;;5097464;28;20438;-67
2021/01/27 04:13:31;;;;;;;11.40;8.17;;;;;;;;;;5097418;28;20893;-67
2021/01/27 04:15:59;;;;;;;13.87;8.07;;;;;;;;;;5097063;28;21016;-67
2021/01/27 04:18:26;;;;;;;12.73;8.33;;;;;;;;;;5097291;28;20450;-67
2021/01/27 04:20:54;;;;;;;11.40;7.53;;;;;;;;;;5097429;28;20440;-67
2021/01/27 04:23:20;;;;;;;15.33;8.53;;;;;;;;;;5097290;28;20453;-67
2021/01/27 04:25:47;;;;;;;11.87;8.10;;;;;;;;;;5099162;28;21001;-67
2021/01/27 04:28:15;;;;;;;11.50;8.23;;;;;;;;;;5101079;28;21003;-67
2021/01/27 04:30:42;;;;;;;12.27;8.10;;;;;;;;;;5100910;28;20439;-67
2021/01/27 04:33:11;;;;;;;14.90;8.60;;;;;;;;;;5101055;28;20538;-67
2021/01/27 04:35:39;;;;;;;13.33;8.67;;;;;;;;;;5100922;28;20459;-67
2021/01/27 04:38:06;;;;;;;15.57;8.17;;;;;;;;;;5100992;28;20475;-67
2021/01/27 04:40:35;;;;;;;13.93;8.87;;;;;;;;;;5101059;28;20571;-67
2021/01/27 04:43:02;;;;;;;16.17;9.00;;;;;;;;;;5100754;28;20959;-67
2021/01/27 04:45:29;;;;;;;17.07;8.97;;;;;;;;;;5100243;28;20835;-67
2021/01/27 04:48:00;;;;;;;14.40;7.97;;;;;;;;;;5100864;28;20821;-67
2021/01/27 04:50:30;;;;;;;14.50;7.83;;;;;;;;;;5101024;28;20471;-67
2021/01/27 04:53:01;;;;;;;13.27;8.10;;;;;;;;;;5100772;28;20466;-67
2021/01/27 04:55:38;;;;;;;13.00;8.47;;;;;;;;;;5100521;28;21023;-67
2021/01/27 04:58:09;;;;;;;12.20;8.27;;;;;;;;;;5100517;28;20451;-67
2021/01/27 05:00:42;;;;;;;12.53;8.67;;;;;;;;;;5100283;28;20562;-67
2021/01/27 05:03:20;;;;;;;13.20;7.73;;;;;;;;;;5100766;28;20443;-67
2021/01/27 05:05:52;;;;;;;11.00;8.07;;;;;;;;;;5100546;28;20467;-67
2021/01/27 05:08:20;;;;;;;12.93;8.30;;;;;;;;;;5100574;28;20457;-67
2021/01/27 05:10:52;;;;;;;11.03;7.40;;;;;;;;;;5100389;28;20497;-67
2021/01/27 05:13:24;;;;;;;16.10;8.60;;;;;;;;;;5100429;28;20452;-67
2021/01/27 05:15:51;;;;;;;11.83;7.97;;;;;;;;;;5099924;28;20471;-67
2021/01/27 05:18:18;;;;;;;13.43;7.70;;;;;;;;;;5100371;28;20518;-67
2021/01/27 05:20:47;;;;;;;10.90;8.23;;;;;;;;;;5100392;28;20997;-67
2021/01/27 05:23:16;;;;;;;12.20;7.97;;;;;;;;;;5099926;28;20513;-67
2021/01/27 05:25:44;;;;;;;11.00;7.93;;;;;;;;;;5100159;28;20467;-67
2021/01/27 05:28:12;;;;;;;15.70;7.73;;;;;;;;;;5100070;28;20516;-67
2021/01/27 05:30:45;;;;;;;13.90;7.53;;;;;;;;;;5100049;28;20444;-67
2021/01/27 05:33:12;;;;;;;11.77;7.20;;;;;;;;;;5100153;28;20471;-67
2021/01/27 05:35:40;;;;;;;12.47;7.40;;;;;;;;;;5100046;28;20550;-67
2021/01/27 05:38:24;;;;;;;12.43;7.73;;;;;;;;;;5099586;28;21051;-67
2021/01/27 05:40:53;;;;;;;11.60;7.07;;;;;;;;;;5100028;28;20578;-67
2021/01/27 05:43:23;;;;;;;9.03;6.27;;;;;;;;;;5099918;28;21006;-67
2021/01/27 05:45:51;;;;;;;12.67;7.23;;;;;;;;;;5099517;28;20474;-67
2021/01/27 05:48:22;;;;;;;9.20;6.73;;;;;;;;;;5099639;28;20444;-67
2021/01/27 05:50:50;;;;;;;10.47;6.43;;;;;;;;;;5099801;28;20443;-67
2021/01/27 05:53:18;;;;;;;10.50;7.03;;;;;;;;;;5099821;28;20931;-67
2021/01/27 05:55:57;;;;;;;10.63;6.70;;;;;;;;;;5099191;28;21029;-67
2021/01/27 05:58:24;;;;;;;11.17;7.30;;;;;;;;;;5099359;28;20501;-67
2021/01/27 06:00:52;;;;;;;11.17;7.23;;;;;;;;;;5099326;28;20482;-67
2021/01/27 06:03:23;;;;;;;12.57;7.47;;;;;;;;;;5099555;28;20435;-67
2021/01/27 06:05:51;;;;;;;12.47;7.83;;;;;;;;;;5099272;28;20479;-67
2021/01/27 06:08:20;;;;;;;12.33;7.73;;;;;;;;;;5099398;28;20535;-67
2021/01/27 06:10:47;;;;;;;12.80;8.00;;;;;;;;;;5099499;28;20523;-67
2021/01/27 06:13:25;;;;;;;14.20;7.80;;;;;;;;;;5098931;28;20803;-67
2021/01/27 06:15:52;;;;;;;10.57;7.43;;;;;;;;;;5098790;28;20538;-67
2021/01/27 06:18:21;;;;;;;14.60;7.80;;;;;;;;;;5099263;28;20576;-67
2021/01/27 06:20:48;;;;;;;11.23;6.77;;;;;;;;;;5099134;28;21075;-67
2021/01/27 06:23:42;;;;;;;10.40;7.20;;;;;;;;;;5099235;28;20443;-67
2021/01/27 06:26:21;;;;;;;12.20;7.03;;;;;;;;;;5062861;28;20560;-67
2021/01/27 06:28:55;;;;;;;8.27;6.23;;;;;;;;;;5098740;28;20863;-67
2021/01/27 06:31:27;;;;;;;7.33;5.63;;;;;;;;;;5098461;28;20977;-67
2021/01/27 06:34:13;;;;;;;12.13;7.10;;;;;;;;;;5098913;28;20450;-67
2021/01/27 06:36:59;;;;;;;7.77;6.23;;;;;;;;;;5087066;28;20526;-67
2021/01/27 06:39:35;;;;;;;8.10;5.70;;;;;;;;;;5098444;28;20978;-68
2021/01/27 06:42:06;;;;;;;8.33;5.97;;;;;;;;;;5098652;28;20447;-68
2021/01/27 06:44:41;;;;;;;10.37;5.97;;;;;;;;;;5098442;28;20472;-67
2021/01/27 06:47:29;;;;;;;8.93;5.30;;;;;;;;;;5098251;28;20443;-67
2021/01/27 06:50:01;;;;;;;6.50;5.80;;;;;;;;;;5073058;28;20538;-68
2021/01/27 06:52:48;;;;;;;9.20;6.37;;;;;;;;;;5098616;28;21014;-67
2021/01/27 06:55:19;;;;;;;13.30;7.20;;;;;;;;;;5093507;28;20472;-68
2021/01/27 06:57:54;;;;;;;13.00;6.30;;;;;;;;;;5098244;28;20451;-68
2021/01/27 07:00:30;;;;;;;11.90;6.50;;;;;;;;;;5098085;28;20842;-67
2021/01/27 07:03:22;;;;;;;15.40;7.00;;;;;;;;;;5098610;28;20977;-68
2021/01/27 07:05:56;;;;;;;10.60;5.37;;;;;;;;;;5097970;28;20463;-67
2021/01/27 07:08:33;;;;;;;11.87;7.23;;;;;;;;;;5098441;28;20530;-68
2021/01/27 07:11:14;;;;;;;12.23;6.10;;;;;;;;;;5098163;28;20439;-68
2021/01/27 07:14:03;;;;;;;9.00;5.43;;;;;;;;;;5098254;28;20454;-68
2021/01/27 07:16:36;;;;;;;8.17;5.80;;;;;;;;;;5097609;28;20530;-68
2021/01/27 07:19:28;;;;;;;9.70;5.90;;;;;;;;;;5097991;28;20861;-68
2021/01/27 07:21:58;;;;;;;13.83;5.70;;;;;;;;;;5098209;28;20522;-68
2021/01/27 07:24:29;;;;;;;9.07;6.50;;;;;;;;;;5097791;28;20559;-68
2021/01/27 07:26:59;;;;;;;12.57;8.83;;;;;;;;;;5098048;28;20475;-68
2021/01/27 07:29:30;;;;;;;10.33;6.20;;;;;;;;;;5098043;28;20444;-68
2021/01/27 07:31:59;;;;;;;10.37;5.67;;;;;;;;;;5097858;28;20550;-68
2021/01/27 07:34:34;;;;;;;9.80;6.10;;;;;;;;;;5097581;28;20535;-67
2021/01/27 07:37:07;;;;;;;9.37;5.50;;;;;;;;;;5098068;28;20449;-68
2021/01/27 07:39:41;;;;;;;6.73;5.63;;;;;;;;;;5097460;28;20483;-68
2021/01/27 07:42:11;;;;;;;8.10;5.47;;;;;;;;;;5097550;28;20465;-67
2021/01/27 07:44:41;;;;;;;8.30;5.77;;;;;;;;;;5097790;28;20467;-67
2021/01/27 07:47:14;;;;;;;8.03;5.40;;;;;;;;;;5097278;28;20949;-68
2021/01/27 07:49:44;;;;;;;7.67;5.20;;;;;;;;;;5097686;28;20807;-67
2021/01/27 07:52:16;;;;;;;9.23;6.53;;;;;;;;;;5097695;28;20805;-67
2021/01/27 07:54:46;;;;;;;8.07;5.50;;;;;;;;;;5097565;28;20467;-68
2021/01/27 07:57:19;;;;;;;14.63;5.77;;;;;;;;;;5097079;28;20443;-68
2021/01/27 07:59:50;;;;;;;9.40;5.67;;;;;;;;;;5097888;28;20483;-67
2021/01/27 08:02:20;;;;;;;10.83;5.53;;;;;;;;;;5101546;28;20523;-68
2021/01/27 08:04:49;;;;;;;8.87;5.10;;;;;;;;;;5101089;28;20538;-67
2021/01/27 08:07:18;;;;;;;12.57;5.87;;;;;;;;;;5101441;28;20471;-67
2021/01/27 08:09:45;;;;;;;8.73;5.43;;;;;;;;;;5101306;28;20449;-68
2021/01/27 08:12:15;;;;;;;7.20;5.10;;;;;;;;;;5101176;28;20452;-67
2021/01/27 08:15:04;;;;;;;8.03;5.03;;;;;;;;;;5101241;28;20463;-67
2021/01/27 08:18:00;;;;;;;15.13;5.80;;;;;;;;;;5101362;28;20951;-67
2021/01/27 08:20:28;;;;;;;7.87;5.40;;;;;;;;;;5101240;28;20482;-67
2021/01/27 08:22:56;;;;;;;8.43;5.43;;;;;;;;;;5100931;28;20443;-67
2021/01/27 08:25:41;;;;;;;10.93;5.77;;;;;;;;;;5101118;28;20550;-67
2021/01/27 08:28:22;;;;;;;8.27;5.57;;;;;;;;;;5100805;28;20482;-67
2021/01/27 08:31:07;;;;;;;12.90;6.10;;;;;;;;;;5100470;28;20471;-68
2021/01/27 08:33:41;;;;;;;7.13;5.27;;;;;;;;;;5101098;28;20478;-67
2021/01/27 08:36:10;;;;;;;9.93;6.00;;;;;;;;;;5100590;28;20466;-67
2021/01/27 08:38:40;;;;;;;6.87;5.10;;;;;;;;;;5100530;28;20974;-67
2021/01/27 08:41:09;;;;;;;10.80;6.13;;;;;;;;;;5100166;28;20839;-67
2021/01/27 08:43:38;;;;;;;9.60;6.07;;;;;;;;;;5100653;28;20511;-68
2021/01/27 08:46:25;;;;;;;27.80;12.37;;;;;;;;;;5099659;28;20989;-68
2021/01/27 08:48:53;;;;;;;14.03;7.67;;;;;;;;;;5097959;28;20518;-68
2021/01/27 08:51:39;;;;;;;12.33;5.93;;;;;;;;;;5099744;28;20461;-67
2021/01/27 08:54:22;;;;;;;8.93;5.37;;;;;;;;;;5099349;28;20515;-68
2021/01/27 08:57:07;;;;;;;8.00;5.33;;;;;;;;;;5099736;28;20447;-68
2021/01/27 08:59:34;;;;;;;10.80;5.87;;;;;;;;;;5098363;28;20486;-68
2021/01/27 09:02:01;;;;;;;9.70;5.37;;;;;;;;;;5099282;28;20467;-68
2021/01/27 09:04:36;;;;;;;9.37;5.70;;;;;;;;;;5099637;28;20516;-68
2021/01/27 09:07:05;;;;;;;9.50;6.03;;;;;;;;;;5100168;28;20530;-69
2021/01/27 09:09:38;;;;;;;8.27;5.50;;;;;;;;;;5101545;28;20528;-68
2021/01/27 09:12:06;;;;;;;12.97;6.83;;;;;;;;;;5100715;28;20439;-69
2021/01/27 09:14:34;;;;;;;10.23;6.47;;;;;;;;;;5100833;28;20552;-69
2021/01/27 09:17:02;;;;;;;8.53;5.40;;;;;;;;;;5100333;28;20440;-71
2021/01/27 09:19:31;;;;;;;9.07;6.10;;;;;;;;;;5099710;28;20440;-70
2021/01/27 09:22:16;;;;;;;9.77;5.90;;;;;;;;;;5099714;28;20447;-69
2021/01/27 09:24:44;;;;;;;11.27;5.80;;;;;;;;;;5096175;28;20455;-69
2021/01/27 09:27:16;;;;;;;9.90;5.80;;;;;;;;;;5097474;28;20535;-71
2021/01/27 09:29:44;;;;;;;13.13;6.23;;;;;;;;;;5099342;28;20478;-70
2021/01/27 09:32:12;;;;;;;11.40;6.10;;;;;;;;;;5097163;28;20459;-70
2021/01/27 09:34:39;;;;;;;9.27;6.03;;;;;;;;;;5098890;28;20510;-71
2021/01/27 09:37:08;;;;;;;12.23;6.80;;;;;;;;;;5098874;28;20450;-70
2021/01/27 09:39:37;;;;;;;10.43;6.03;;;;;;;;;;5098650;28;20528;-70
2021/01/27 09:42:14;;;;;;;13.90;8.30;;;;;;;;;;5098436;28;20906;-70
2021/01/27 09:44:41;;;;;;;9.90;6.03;;;;;;;;;;5099098;28;20550;-70
2021/01/27 09:47:10;;;;;;;10.93;6.10;;;;;;;;;;5098729;28;20538;-70
2021/01/27 09:49:40;;;;;;;13.50;6.53;;;;;;;;;;5098007;28;20472;-69
2021/01/27 09:52:11;;;;;;;9.77;6.57;;;;;;;;;;5098001;28;20531;-69
2021/01/27 09:54:40;;;;;;;9.87;6.60;;;;;;;;;;5096869;28;20468;-71
2021/01/27 09:57:10;;;;;;;11.03;6.57;;;;;;;;;;5098235;28;20867;-69
2021/01/27 09:59:38;;;;;;;14.13;7.13;;;;;;;;;;5098409;28;20452;-70
2021/01/27 10:02:05;;;;;;;9.40;6.00;;;;;;;;;;5097972;28;20448;-69
2021/01/27 10:04:34;;;;;;;12.13;6.43;;;;;;;;;;5098625;28;20456;-69
2021/01/27 10:07:09;;;;;;;8.37;7.07;;;;;;;;;;5098251;28;20804;-69
2021/01/27 10:09:41;;;;;;;14.07;6.90;;;;;;;;;;5091212;28;20529;-69
2021/01/27 10:12:11;;;;;;;10.43;7.27;;;;;;;;;;5098243;28;20799;-69
2021/01/27 10:14:39;;;;;;;11.13;7.00;;;;;;;;;;5098678;28;20458;-69
2021/01/27 10:17:07;;;;;;;10.83;7.20;;;;;;;;;;5098421;28;20467;-69
2021/01/27 10:19:36;;;;;;;9.43;6.77;;;;;;;;;;5099861;28;20446;-69
2021/01/27 10:22:05;;;;;;;12.17;6.90;;;;;;;;;;5098924;28;20454;-69
2021/01/27 10:24:43;;;;;;;15.13;6.53;;;;;;;;;;5090246;28;20468;-69
2021/01/27 10:27:17;;;;;;;8.87;5.93;;;;;;;;;;5097710;28;20468;-70
2021/01/27 10:29:44;;;;;;;10.53;6.63;;;;;;;;;;5097933;28;20443;-70
2021/01/27 10:32:21;;;;;;;13.20;6.83;;;;;;;;;;5097850;28;20447;-70
2021/01/27 10:34:49;;;;;;;12.57;5.80;;;;;;;;;;5097853;28;20940;-69
2021/01/27 10:37:28;;;;;;;10.30;6.37;;;;;;;;;;5096662;28;20444;-69
2021/01/27 10:40:08;;;;;;;9.90;5.93;;;;;;;;;;5097384;28;20981;-70
2021/01/27 10:42:36;;;;;;;9.80;6.27;;;;;;;;;;5095369;28;20439;-71
2021/01/27 10:45:15;;;;;;;9.03;5.73;;;;;;;;;;5096916;28;20513;-71
2021/01/27 10:47:43;;;;;;;10.17;5.50;;;;;;;;;;5096059;28;20446;-71
2021/01/27 10:50:10;;;;;;;10.30;7.27;;;;;;;;;;5097819;28;20479;-70
2021/01/27 10:52:57;;;;;;;10.87;5.07;;;;;;;;;;5097459;28;20443;-71
2021/01/27 10:55:26;;;;;;;9.20;5.53;;;;;;;;;;5097471;28;20558;-70
2021/01/27 10:58:02;;;;;;;8.53;5.37;;;;;;;;;;5097210;28;20443;-71
2021/01/27 11:00:29;;;;;;;7.37;5.20;;;;;;;;;;5097074;28;20482;-70
2021/01/27 11:02:56;;;;;;;11.43;5.07;;;;;;;;;;5097428;28;20448;-71
2021/01/27 11:05:23;;;;;;;8.47;5.53;;;;;;;;;;5097253;28;20478;-71
2021/01/27 11:07:50;;;;;;;11.30;6.00;;;;;;;;;;5097198;28;20489;-69
2021/01/27 11:10:17;;;;;;;14.27;6.87;;;;;;;;;;5097399;28;20451;-68
2021/01/27 11:12:44;;;;;;;7.97;5.03;;;;;;;;;;5097467;28;20502;-70
2021/01/27 11:15:12;;;;;;;9.03;4.90;;;;;;;;;;5096447;28;20490;-69
2021/01/27 11:17:39;;;;;;;8.93;5.17;;;;;;;;;;5097377;28;20446;-68
2021/01/27 11:20:07;;;;;;;11.00;5.63;;;;;;;;;;5097134;28;20225;-69
2021/01/27 11:22:34;;;;;;;8.43;5.13;;;;;;;;;;5093938;28;20923;-69
2021/01/27 11:25:01;;;;;;;8.47;5.27;;;;;;;;;;5096859;28;20325;-69
2021/01/27 11:27:28;;;;;;;10.87;6.03;;;;;;;;;;5096942;28;20255;-69
2021/01/27 11:29:55;;;;;;;8.17;5.20;;;;;;;;;;5096765;28;20209;-68
2021/01/27 11:32:23;;;;;;;5.57;4.73;;;;;;;;;;5096936;28;20289;-69
2021/01/27 11:34:50;;;;;;;8.67;5.43;;;;;;;;;;5096787;28;20217;-69
2021/01/27 11:37:17;;;;;;;8.40;5.07;;;;;;;;;;5096713;28;20209;-69
2021/01/27 11:39:46;;;;;;;8.07;4.97;;;;;;;;;;5096583;28;20241;-70
2021/01/27 11:42:13;;;;;;;8.17;5.17;;;;;;;;;;5096597;28;20244;-69
2021/01/27 11:44:40;;;;;;;6.37;4.27;;;;;;;;;;5095050;28;20232;-69
2021/01/27 11:47:07;;;;;;;6.93;4.90;;;;;;;;;;5096631;28;20239;-69
2021/01/27 11:49:35;;;;;;;8.03;5.53;;;;;;;;;;5096714;28;20734;-68
2021/01/27 11:52:04;;;;;;;7.13;4.97;;;;;;;;;;5093603;28;20235;-69
2021/01/27 11:54:31;;;;;;;7.90;5.37;;;;;;;;;;5096851;28;20261;-68
2021/01/27 11:56:58;;;;;;;8.27;5.27;;;;;;;;;;5096094;28;20448;-68
2021/01/27 11:59:25;;;;;;;6.07;4.90;;;;;;;;;;5096059;28;20450;-69
2021/01/27 12:01:51;;;;;;;9.33;5.70;;;;;;;;;;5094435;28;20734;-70
2021/01/27 12:04:19;;;;;;;8.17;5.17;;;;;;;;;;5092472;28;20300;-70
2021/01/27 12:06:48;;;;;;;9.03;5.40;;;;;;;;;;5096886;28;20447;-70
2021/01/27 12:09:16;;;;;;;10.10;5.03;;;;;;;;;;5096619;28;20447;-70
2021/01/27 12:11:44;;;;;;;6.73;5.03;;;;;;;;;;5096527;28;20457;-70
2021/01/27 12:14:11;;;;;;;8.73;5.60;;;;;;;;;;5095259;28;20460;-70
2021/01/27 12:16:38;;;;;;;8.93;5.87;;;;;;;;;;5096371;28;20576;-71
2021/01/27 12:19:06;;;;;;;6.77;5.03;;;;;;;;;;5096269;28;20205;-70
2021/01/27 12:21:33;;;;;;;9.77;5.67;;;;;;;;;;5096800;28;20229;-71
2021/01/27 12:24:04;;;;;;;7.37;5.33;;;;;;;;;;5096316;28;20205;-70
2021/01/27 12:26:32;;;;;;;8.53;5.97;;;;;;;;;;5088679;28;20252;-70
2021/01/27 12:28:59;;;;;;;9.93;6.13;;;;;;;;;;5096521;28;20205;-70
2021/01/27 12:31:26;;;;;;;11.13;6.63;;;;;;;;;;5096508;28;20440;-71
2021/01/27 12:33:54;;;;;;;12.40;5.93;;;;;;;;;;5096109;28;20443;-70
2021/01/27 12:36:22;;;;;;;10.13;6.00;;;;;;;;;;5096701;28;20448;-70
2021/01/27 12:38:49;;;;;;;11.10;6.80;;;;;;;;;;5096034;28;20834;-70
2021/01/27 12:41:17;;;;;;;10.40;6.80;;;;;;;;;;5096337;28;20559;-71
2021/01/27 12:43:45;;;;;;;17.73;6.37;;;;;;;;;;5096206;28;20481;-70
2021/01/27 12:46:12;;;;;;;9.60;5.83;;;;;;;;;;5096787;28;20520;-70
2021/01/27 12:48:39;;;;;;;12.40;6.10;;;;;;;;;;5099998;28;20479;-70
2021/01/27 12:51:07;;;;;;;11.03;5.90;;;;;;;;;;5099926;28;20898;-69
2021/01/27 12:53:33;;;;;;;11.37;6.67;;;;;;;;;;5099772;28;20479;-69
2021/01/27 12:56:00;;;;;;;11.03;6.00;;;;;;;;;;5098336;28;20467;-69
2021/01/27 12:58:28;;;;;;;8.43;6.43;;;;;;;;;;5099641;28;20443;-69
2021/01/27 13:00:55;;;;;;;9.17;5.87;;;;;;;;;;5098807;28;20479;-70
2021/01/27 13:03:25;;;;;;;9.10;6.13;;;;;;;;;;5092690;28;20494;-70
2021/01/27 13:05:53;;;;;;;7.50;5.90;;;;;;;;;;5099518;28;20459;-70
2021/01/27 13:08:20;;;;;;;9.73;5.83;;;;;;;;;;5099720;28;20454;-70
2021/01/27 13:10:47;;;;;;;12.03;6.10;;;;;;;;;;5099346;28;20939;-71
2021/01/27 13:13:15;;;;;;;9.33;6.30;;;;;;;;;;5091483;28;20455;-70
2021/01/27 13:15:43;;;;;;;10.27;5.97;;;;;;;;;;5098880;28;20237;-71
2021/01/27 13:18:11;;;;;;;9.97;7.17;;;;;;;;;;5099692;28;20213;-70
2021/01/27 13:20:39;;;;;;;14.10;6.37;;;;;;;;;;5099012;28;20692;-71
2021/01/27 13:23:06;;;;;;;10.43;6.10;;;;;;;;;;5099611;28;20212;-70
2021/01/27 13:25:33;;;;;;;12.47;5.97;;;;;;;;;;5098920;28;20229;-70
2021/01/27 13:28:01;;;;;;;7.00;5.63;;;;;;;;;;5099015;28;20918;-70
2021/01/27 13:30:29;;;;;;;11.57;5.83;;;;;;;;;;5098838;28;20684;-72
2021/01/27 13:32:58;;;;;;;9.73;6.17;;;;;;;;;;5099772;28;20237;-71
2021/01/27 13:35:28;;;;;;;11.83;6.53;;;;;;;;;;5098973;28;20463;-71
2021/01/27 13:37:56;;;;;;;9.07;5.87;;;;;;;;;;5099022;28;20255;-70
2021/01/27 13:40:26;;;;;;;8.67;6.30;;;;;;;;;;5100199;28;20483;-70
2021/01/27 13:42:53;;;;;;;7.53;5.43;;;;;;;;;;5097490;28;20538;-69
2021/01/27 13:45:21;;;;;;;9.33;5.83;;;;;;;;;;5097074;28;20558;-69
2021/01/27 13:47:48;;;;;;;10.03;6.30;;;;;;;;;;5097679;28;20522;-70
2021/01/27 13:50:17;;;;;;;9.50;5.90;;;;;;;;;;5098523;28;20470;-68
2021/01/27 13:52:44;;;;;;;8.63;6.00;;;;;;;;;;5097904;28;20547;-68
2021/01/27 13:55:11;;;;;;;8.20;5.87;;;;;;;;;;5092450;28;20459;-69
2021/01/27 13:57:39;;;;;;;10.40;6.23;;;;;;;;;;5096242;28;20528;-72
2021/01/27 14:00:06;;;;;;;10.03;5.13;;;;;;;;;;5087385;28;20437;-71
2021/01/27 14:02:33;;;;;;;10.97;5.70;;;;;;;;;;5091318;28;20511;-72
2021/01/27 14:05:00;;;;;;;7.37;4.70;;;;;;;;;;5086428;28;20451;-72
2021/01/27 14:07:28;;;;;;;7.37;4.97;;;;;;;;;;5083726;28;20438;-72
2021/01/27 14:09:55;;;;;;;7.43;5.27;;;;;;;;;;5088796;28;20528;-71
2021/01/27 14:12:22;;;;;;;7.40;5.30;;;;;;;;;;5095166;28;20526;-71
2021/01/27 14:14:49;;;;;;;8.23;5.20;;;;;;;;;;5096754;28;20474;-72
2021/01/27 14:17:17;;;;;;;11.90;4.93;;;;;;;;;;5098159;28;20300;-71
2021/01/27 14:19:44;;;;;;;9.07;4.67;;;;;;;;;;5098354;28;20240;-71
2021/01/27 14:22:12;;;;;;;8.17;5.07;;;;;;;;;;5097751;28;20230;-71
2021/01/27 14:24:42;;;;;;;5.73;4.20;;;;;;;;;;5097756;28;20462;-72
2021/01/27 14:27:09;;;;;;;5.13;3.93;;;;;;;;;;5097905;28;20507;-71
2021/01/27 14:29:37;;;;;;;6.07;3.70;;;;;;;;;;5097789;28;20447;-72
2021/01/27 14:32:05;;;;;;;5.40;3.77;;;;;;;;;;5097665;28;20456;-72
2021/01/27 14:34:33;;;;;;;9.70;4.20;;;;;;;;;;5097624;28;20464;-72
2021/01/27 14:37:00;;;;;;;8.97;3.60;;;;;;;;;;5097829;28;20432;-72
2021/01/27 14:39:27;;;;;;;9.03;3.70;;;;;;;;;;5097300;28;20327;-72
2021/01/27 14:41:55;;;;;;;5.20;3.37;;;;;;;;;;5097508;28;20229;-71
2021/01/27 14:44:22;;;;;;;6.17;4.00;;;;;;;;;;5097486;28;20519;-72
2021/01/27 14:46:50;;;;;;;4.93;3.60;;;;;;;;;;5097945;28;20290;-71
2021/01/27 14:49:20;;;;;;;5.43;3.33;;;;;;;;;;5097503;28;20263;-72
2021/01/27 14:51:47;;;;;;;11.80;4.23;;;;;;;;;;5097516;28;20644;-71